Portada
METAR-TAF:

METAR-TAF

Aeroports :

Agartala, Índia

latitud: 23-53-24N, longitud: 91-14-32E, altitud: 14 m

Observació

L'informe es va fer fa 6 hores i 27 minuts, a les 13:30 UTC
Vent calma
Temperatura 28°C
Humitat 79%
Pressió 1011 hPa
Visibilitat: 4000 m
boirina

METAR: VEAT 211330Z 00000KT 4000 BR NSC 28/24 Q1011 NOSIG

Hora: 01:27 (19:57 UTC)

Pronòstic

L'informe es va fer fa 5 hores i 57 minuts, a les 14:00 UTC
Pronòstic vàlid del 21 a les 15 UTC al 21 a les 24 UTC
Vent kt del Nord
Visibilitat: 4000 m
boirina
Evolucionant progressivament
l' 21 a les 18 UTC al 21 a les 20 UTC
Visibilitat: 3000 m
boirina
Evolucionant progressivament
l' 21 a les 22 UTC al 21 a les 24 UTC
Visibilitat: 1500 m
Escasses núvols a una alçada de 10000 ft
boirina

TAF: VEAT 211400Z 2115/2124 00000KT 4000 BR NSC BECMG 2118/2120 3000 BR BECMG 2122/2124 1500 BR FEW100

Observacions i pronòstics meteorològics de més de 4000 aeroports (METAR i TAF).

Les estacions disponibles són els punts grocs i vermells al mapa.

Posi el ratolí al punt desitjat per veure el nom de l'estació.

Feu clic per veure les observacions i els pronòstics meteorològics.

Per canviar el mapa: feu clic els botons verds amb una creu de color negre per apropar; al botó verd amb un guió per allunyar la imatge; o en les fletxes verdes per a mapes adjacents.


METAR-TAF: